sensor_id;sensor_type;location;lat;lon;timestamp;temperature;humidity
14188;DHT22;7175;51.978;5.330;2023-12-20T00:01:22;7.30;99.90
14188;DHT22;7175;51.978;5.330;2023-12-20T00:03:51;7.30;99.90
14188;DHT22;7175;51.978;5.330;2023-12-20T00:06:19;7.40;99.90
14188;DHT22;7175;51.978;5.330;2023-12-20T00:08:47;7.30;99.90
14188;DHT22;7175;51.978;5.330;2023-12-20T00:11:15;7.30;99.90
14188;DHT22;7175;51.978;5.330;2023-12-20T00:13:43;7.30;99.90
14188;DHT22;7175;51.978;5.330;2023-12-20T00:16:16;7.20;99.90
14188;DHT22;7175;51.978;5.330;2023-12-20T00:18:44;7.20;99.90
14188;DHT22;7175;51.978;5.330;2023-12-20T00:21:14;7.20;99.90
14188;DHT22;7175;51.978;5.330;2023-12-20T00:23:42;7.10;99.90
14188;DHT22;7175;51.978;5.330;2023-12-20T00:26:10;7.10;99.90
14188;DHT22;7175;51.978;5.330;2023-12-20T00:28:38;7.10;99.90
14188;DHT22;7175;51.978;5.330;2023-12-20T00:31:06;7.00;99.90
14188;DHT22;7175;51.978;5.330;2023-12-20T00:33:34;7.00;99.90
14188;DHT22;7175;51.978;5.330;2023-12-20T00:36:03;7.00;99.90
14188;DHT22;7175;51.978;5.330;2023-12-20T00:38:32;7.00;99.90
14188;DHT22;7175;51.978;5.330;2023-12-20T00:41:00;6.90;99.90
14188;DHT22;7175;51.978;5.330;2023-12-20T00:43:28;6.90;99.90
14188;DHT22;7175;51.978;5.330;2023-12-20T00:45:57;6.90;99.90
14188;DHT22;7175;51.978;5.330;2023-12-20T00:48:26;6.90;99.90
14188;DHT22;7175;51.978;5.330;2023-12-20T00:50:57;6.90;99.90
14188;DHT22;7175;51.978;5.330;2023-12-20T00:53:25;6.90;99.90
14188;DHT22;7175;51.978;5.330;2023-12-20T00:55:54;6.90;99.90
14188;DHT22;7175;51.978;5.330;2023-12-20T00:58:22;6.80;99.90
14188;DHT22;7175;51.978;5.330;2023-12-20T01:00:50;6.80;99.90
14188;DHT22;7175;51.978;5.330;2023-12-20T01:03:18;6.80;99.90
14188;DHT22;7175;51.978;5.330;2023-12-20T01:05:46;6.90;99.90
14188;DHT22;7175;51.978;5.330;2023-12-20T01:08:14;6.90;99.90
14188;DHT22;7175;51.978;5.330;2023-12-20T01:10:42;6.90;99.90
14188;DHT22;7175;51.978;5.330;2023-12-20T01:13:12;6.90;99.90
14188;DHT22;7175;51.978;5.330;2023-12-20T01:15:40;6.90;99.90
14188;DHT22;7175;51.978;5.330;2023-12-20T01:18:08;6.90;99.90
14188;DHT22;7175;51.978;5.330;2023-12-20T01:20:37;6.90;99.90
14188;DHT22;7175;51.978;5.330;2023-12-20T01:23:05;6.90;99.90
14188;DHT22;7175;51.978;5.330;2023-12-20T01:25:33;6.90;99.90
14188;DHT22;7175;51.978;5.330;2023-12-20T01:28:01;6.80;99.90
14188;DHT22;7175;51.978;5.330;2023-12-20T01:30:31;6.80;99.90
14188;DHT22;7175;51.978;5.330;2023-12-20T01:33:00;6.80;99.90
14188;DHT22;7175;51.978;5.330;2023-12-20T01:35:28;6.80;99.90
14188;DHT22;7175;51.978;5.330;2023-12-20T01:37:56;6.90;99.90
14188;DHT22;7175;51.978;5.330;2023-12-20T01:40:24;6.80;99.90
14188;DHT22;7175;51.978;5.330;2023-12-20T01:43:01;6.80;99.90
14188;DHT22;7175;51.978;5.330;2023-12-20T01:45:31;6.80;99.90
14188;DHT22;7175;51.978;5.330;2023-12-20T01:48:00;6.90;99.90
14188;DHT22;7175;51.978;5.330;2023-12-20T01:50:30;6.80;99.90
14188;DHT22;7175;51.978;5.330;2023-12-20T01:53:00;6.80;99.90
14188;DHT22;7175;51.978;5.330;2023-12-20T01:55:31;6.80;99.90
14188;DHT22;7175;51.978;5.330;2023-12-20T01:58:01;6.90;99.90
14188;DHT22;7175;51.978;5.330;2023-12-20T02:00:31;6.90;99.90
14188;DHT22;7175;51.978;5.330;2023-12-20T02:03:01;6.90;99.90
14188;DHT22;7175;51.978;5.330;2023-12-20T02:05:30;6.80;99.90
14188;DHT22;7175;51.978;5.330;2023-12-20T02:07:58;6.80;99.90
14188;DHT22;7175;51.978;5.330;2023-12-20T02:10:26;6.80;99.90
14188;DHT22;7175;51.978;5.330;2023-12-20T02:12:55;6.80;99.90
14188;DHT22;7175;51.978;5.330;2023-12-20T02:15:23;6.80;99.90
14188;DHT22;7175;51.978;5.330;2023-12-20T02:17:53;6.80;99.90
14188;DHT22;7175;51.978;5.330;2023-12-20T02:20:22;6.80;99.90
14188;DHT22;7175;51.978;5.330;2023-12-20T02:22:51;6.90;99.90
14188;DHT22;7175;51.978;5.330;2023-12-20T02:25:19;6.90;99.90
14188;DHT22;7175;51.978;5.330;2023-12-20T02:27:47;6.90;99.90
14188;DHT22;7175;51.978;5.330;2023-12-20T02:30:16;7.00;99.90
14188;DHT22;7175;51.978;5.330;2023-12-20T02:32:44;7.00;99.90
14188;DHT22;7175;51.978;5.330;2023-12-20T02:35:12;7.10;99.90
14188;DHT22;7175;51.978;5.330;2023-12-20T02:37:40;7.00;99.90
14188;DHT22;7175;51.978;5.330;2023-12-20T02:40:10;7.00;99.90
14188;DHT22;7175;51.978;5.330;2023-12-20T02:42:38;7.10;99.90
14188;DHT22;7175;51.978;5.330;2023-12-20T02:45:07;7.10;99.90
14188;DHT22;7175;51.978;5.330;2023-12-20T02:47:35;7.10;99.90
14188;DHT22;7175;51.978;5.330;2023-12-20T02:50:04;7.10;99.90
14188;DHT22;7175;51.978;5.330;2023-12-20T02:52:32;7.10;99.90
14188;DHT22;7175;51.978;5.330;2023-12-20T02:55:00;7.10;99.90
14188;DHT22;7175;51.978;5.330;2023-12-20T02:57:29;7.00;99.90
14188;DHT22;7175;51.978;5.330;2023-12-20T02:59:57;7.00;99.90
14188;DHT22;7175;51.978;5.330;2023-12-20T03:02:25;7.00;99.90
14188;DHT22;7175;51.978;5.330;2023-12-20T03:04:53;7.00;99.90
14188;DHT22;7175;51.978;5.330;2023-12-20T03:07:21;7.10;99.90
14188;DHT22;7175;51.978;5.330;2023-12-20T03:09:49;7.10;99.90
14188;DHT22;7175;51.978;5.330;2023-12-20T03:12:38;7.20;99.90
14188;DHT22;7175;51.978;5.330;2023-12-20T03:15:08;7.20;99.90
14188;DHT22;7175;51.978;5.330;2023-12-20T03:17:36;7.20;99.90
14188;DHT22;7175;51.978;5.330;2023-12-20T03:20:05;7.30;99.90
14188;DHT22;7175;51.978;5.330;2023-12-20T03:22:33;7.30;99.90
14188;DHT22;7175;51.978;5.330;2023-12-20T03:25:02;7.30;99.90
14188;DHT22;7175;51.978;5.330;2023-12-20T03:27:30;7.30;99.90
14188;DHT22;7175;51.978;5.330;2023-12-20T03:29:59;7.40;99.90
14188;DHT22;7175;51.978;5.330;2023-12-20T03:32:27;7.40;99.90
14188;DHT22;7175;51.978;5.330;2023-12-20T03:34:55;7.50;99.90
14188;DHT22;7175;51.978;5.330;2023-12-20T03:37:23;7.50;99.90
14188;DHT22;7175;51.978;5.330;2023-12-20T03:39:51;7.60;99.90
14188;DHT22;7175;51.978;5.330;2023-12-20T03:42:19;7.60;99.90
14188;DHT22;7175;51.978;5.330;2023-12-20T03:44:47;7.60;99.90
14188;DHT22;7175;51.978;5.330;2023-12-20T03:47:17;7.60;99.90
14188;DHT22;7175;51.978;5.330;2023-12-20T03:49:45;7.70;99.90
14188;DHT22;7175;51.978;5.330;2023-12-20T03:52:13;7.70;99.90
14188;DHT22;7175;51.978;5.330;2023-12-20T03:54:41;7.70;99.90
14188;DHT22;7175;51.978;5.330;2023-12-20T03:57:09;7.70;99.90
14188;DHT22;7175;51.978;5.330;2023-12-20T03:59:37;7.70;99.90
14188;DHT22;7175;51.978;5.330;2023-12-20T04:02:05;7.80;99.90
14188;DHT22;7175;51.978;5.330;2023-12-20T04:04:35;7.80;99.90
14188;DHT22;7175;51.978;5.330;2023-12-20T04:07:03;7.80;99.90
14188;DHT22;7175;51.978;5.330;2023-12-20T04:09:31;7.80;99.90
14188;DHT22;7175;51.978;5.330;2023-12-20T04:11:59;7.70;99.90
14188;DHT22;7175;51.978;5.330;2023-12-20T04:14:27;7.70;99.90
14188;DHT22;7175;51.978;5.330;2023-12-20T04:16:55;7.70;99.90
14188;DHT22;7175;51.978;5.330;2023-12-20T04:19:23;7.70;99.90
14188;DHT22;7175;51.978;5.330;2023-12-20T04:21:53;7.60;99.90
14188;DHT22;7175;51.978;5.330;2023-12-20T04:24:21;7.70;99.90
14188;DHT22;7175;51.978;5.330;2023-12-20T04:26:49;7.60;99.90
14188;DHT22;7175;51.978;5.330;2023-12-20T04:29:17;7.60;99.90
14188;DHT22;7175;51.978;5.330;2023-12-20T04:31:45;7.70;99.90
14188;DHT22;7175;51.978;5.330;2023-12-20T04:34:13;7.70;99.90
14188;DHT22;7175;51.978;5.330;2023-12-20T04:36:41;7.70;99.90
14188;DHT22;7175;51.978;5.330;2023-12-20T04:39:12;7.70;99.90
14188;DHT22;7175;51.978;5.330;2023-12-20T04:41:41;7.70;99.90
14188;DHT22;7175;51.978;5.330;2023-12-20T04:44:09;7.80;99.90
14188;DHT22;7175;51.978;5.330;2023-12-20T04:46:37;7.80;99.90
14188;DHT22;7175;51.978;5.330;2023-12-20T04:49:05;7.80;99.90
14188;DHT22;7175;51.978;5.330;2023-12-20T04:51:33;7.80;99.90
14188;DHT22;7175;51.978;5.330;2023-12-20T04:54:01;7.80;99.90
14188;DHT22;7175;51.978;5.330;2023-12-20T04:56:31;7.80;99.90
14188;DHT22;7175;51.978;5.330;2023-12-20T04:58:59;7.90;99.90
14188;DHT22;7175;51.978;5.330;2023-12-20T05:01:27;7.90;99.90
14188;DHT22;7175;51.978;5.330;2023-12-20T05:03:55;7.90;99.90
14188;DHT22;7175;51.978;5.330;2023-12-20T05:06:23;7.90;99.90
14188;DHT22;7175;51.978;5.330;2023-12-20T05:08:51;7.90;99.90
14188;DHT22;7175;51.978;5.330;2023-12-20T05:11:19;7.90;99.90
14188;DHT22;7175;51.978;5.330;2023-12-20T05:13:49;7.90;99.90
14188;DHT22;7175;51.978;5.330;2023-12-20T05:16:17;7.90;99.90
14188;DHT22;7175;51.978;5.330;2023-12-20T05:18:48;7.90;99.90
14188;DHT22;7175;51.978;5.330;2023-12-20T05:21:16;7.90;99.90
14188;DHT22;7175;51.978;5.330;2023-12-20T05:23:44;7.90;99.90
14188;DHT22;7175;51.978;5.330;2023-12-20T05:26:12;7.90;99.90
14188;DHT22;7175;51.978;5.330;2023-12-20T05:28:40;8.00;99.90
14188;DHT22;7175;51.978;5.330;2023-12-20T05:31:10;7.90;99.90
14188;DHT22;7175;51.978;5.330;2023-12-20T05:33:38;7.90;99.90
14188;DHT22;7175;51.978;5.330;2023-12-20T05:36:06;7.90;99.90
14188;DHT22;7175;51.978;5.330;2023-12-20T05:38:38;8.00;99.90
14188;DHT22;7175;51.978;5.330;2023-12-20T05:41:06;8.00;99.90
14188;DHT22;7175;51.978;5.330;2023-12-20T05:43:34;7.90;99.90
14188;DHT22;7175;51.978;5.330;2023-12-20T05:46:02;7.90;99.90
14188;DHT22;7175;51.978;5.330;2023-12-20T05:48:32;8.00;99.90
14188;DHT22;7175;51.978;5.330;2023-12-20T05:50:59;8.00;99.90
14188;DHT22;7175;51.978;5.330;2023-12-20T05:53:27;8.00;99.90
14188;DHT22;7175;51.978;5.330;2023-12-20T05:55:55;8.00;99.90
14188;DHT22;7175;51.978;5.330;2023-12-20T05:58:23;8.00;99.90
14188;DHT22;7175;51.978;5.330;2023-12-20T06:00:51;8.00;99.90
14188;DHT22;7175;51.978;5.330;2023-12-20T06:03:20;8.00;99.90
14188;DHT22;7175;51.978;5.330;2023-12-20T06:05:49;8.00;99.90
14188;DHT22;7175;51.978;5.330;2023-12-20T06:08:21;8.00;99.90
14188;DHT22;7175;51.978;5.330;2023-12-20T06:10:49;8.00;99.90
14188;DHT22;7175;51.978;5.330;2023-12-20T06:13:17;8.00;99.90
14188;DHT22;7175;51.978;5.330;2023-12-20T06:15:45;8.00;99.90
14188;DHT22;7175;51.978;5.330;2023-12-20T06:18:13;8.10;99.90
14188;DHT22;7175;51.978;5.330;2023-12-20T06:20:41;8.10;99.90
14188;DHT22;7175;51.978;5.330;2023-12-20T06:23:10;8.10;99.90
14188;DHT22;7175;51.978;5.330;2023-12-20T06:25:38;8.10;99.90
14188;DHT22;7175;51.978;5.330;2023-12-20T06:28:06;8.10;99.90
14188;DHT22;7175;51.978;5.330;2023-12-20T06:30:37;8.10;99.90
14188;DHT22;7175;51.978;5.330;2023-12-20T06:33:05;8.10;99.90
14188;DHT22;7175;51.978;5.330;2023-12-20T06:35:33;8.10;99.90
14188;DHT22;7175;51.978;5.330;2023-12-20T06:38:03;8.10;99.90
14188;DHT22;7175;51.978;5.330;2023-12-20T06:40:33;8.10;99.90
14188;DHT22;7175;51.978;5.330;2023-12-20T06:43:01;8.10;99.90
14188;DHT22;7175;51.978;5.330;2023-12-20T06:45:42;8.10;99.90
14188;DHT22;7175;51.978;5.330;2023-12-20T06:48:10;8.10;99.90
14188;DHT22;7175;51.978;5.330;2023-12-20T06:50:40;8.10;99.90
14188;DHT22;7175;51.978;5.330;2023-12-20T06:53:08;8.10;99.90
14188;DHT22;7175;51.978;5.330;2023-12-20T06:55:38;8.20;99.90
14188;DHT22;7175;51.978;5.330;2023-12-20T06:58:05;8.20;99.90
14188;DHT22;7175;51.978;5.330;2023-12-20T07:00:33;8.20;99.90
14188;DHT22;7175;51.978;5.330;2023-12-20T07:03:01;8.20;99.90
14188;DHT22;7175;51.978;5.330;2023-12-20T07:05:29;8.20;99.90
14188;DHT22;7175;51.978;5.330;2023-12-20T07:07:57;8.20;99.90
14188;DHT22;7175;51.978;5.330;2023-12-20T07:10:25;8.20;99.90
14188;DHT22;7175;51.978;5.330;2023-12-20T07:12:55;8.20;99.90
14188;DHT22;7175;51.978;5.330;2023-12-20T07:15:23;8.20;99.90
14188;DHT22;7175;51.978;5.330;2023-12-20T07:17:51;8.30;99.90
14188;DHT22;7175;51.978;5.330;2023-12-20T07:20:19;8.30;99.90
14188;DHT22;7175;51.978;5.330;2023-12-20T07:22:47;8.30;99.90
14188;DHT22;7175;51.978;5.330;2023-12-20T07:25:15;8.30;99.90
14188;DHT22;7175;51.978;5.330;2023-12-20T07:27:43;8.30;99.90
14188;DHT22;7175;51.978;5.330;2023-12-20T07:30:14;8.30;99.90
14188;DHT22;7175;51.978;5.330;2023-12-20T07:32:42;8.30;99.90
14188;DHT22;7175;51.978;5.330;2023-12-20T07:35:10;8.30;99.90
14188;DHT22;7175;51.978;5.330;2023-12-20T07:37:38;8.30;99.90
14188;DHT22;7175;51.978;5.330;2023-12-20T07:40:07;8.40;99.90
14188;DHT22;7175;51.978;5.330;2023-12-20T07:42:35;8.30;99.90
14188;DHT22;7175;51.978;5.330;2023-12-20T07:45:04;8.30;99.90
14188;DHT22;7175;51.978;5.330;2023-12-20T07:47:33;8.30;99.90
14188;DHT22;7175;51.978;5.330;2023-12-20T07:50:02;8.40;99.90
14188;DHT22;7175;51.978;5.330;2023-12-20T07:52:30;8.40;99.90
14188;DHT22;7175;51.978;5.330;2023-12-20T07:54:58;8.40;99.90
14188;DHT22;7175;51.978;5.330;2023-12-20T07:57:28;8.40;99.90
14188;DHT22;7175;51.978;5.330;2023-12-20T07:59:56;8.40;99.90
14188;DHT22;7175;51.978;5.330;2023-12-20T08:02:24;8.40;99.90
14188;DHT22;7175;51.978;5.330;2023-12-20T08:04:54;8.50;99.90
14188;DHT22;7175;51.978;5.330;2023-12-20T08:07:22;8.50;99.90
14188;DHT22;7175;51.978;5.330;2023-12-20T08:09:50;8.50;99.90
14188;DHT22;7175;51.978;5.330;2023-12-20T08:12:18;8.50;99.90
14188;DHT22;7175;51.978;5.330;2023-12-20T08:14:46;8.50;99.90
14188;DHT22;7175;51.978;5.330;2023-12-20T08:17:14;8.50;99.90
14188;DHT22;7175;51.978;5.330;2023-12-20T08:19:43;8.50;99.90
14188;DHT22;7175;51.978;5.330;2023-12-20T08:22:12;8.50;99.90
14188;DHT22;7175;51.978;5.330;2023-12-20T08:24:40;8.60;99.90
14188;DHT22;7175;51.978;5.330;2023-12-20T08:27:08;8.50;99.90
14188;DHT22;7175;51.978;5.330;2023-12-20T08:29:36;8.60;99.90
14188;DHT22;7175;51.978;5.330;2023-12-20T08:32:05;8.60;99.90
14188;DHT22;7175;51.978;5.330;2023-12-20T08:34:33;8.60;99.90
14188;DHT22;7175;51.978;5.330;2023-12-20T08:37:01;8.60;99.90
14188;DHT22;7175;51.978;5.330;2023-12-20T08:39:30;8.50;99.90
14188;DHT22;7175;51.978;5.330;2023-12-20T08:42:00;8.60;99.90
14188;DHT22;7175;51.978;5.330;2023-12-20T08:44:28;8.60;99.90
14188;DHT22;7175;51.978;5.330;2023-12-20T08:46:56;8.60;99.90
14188;DHT22;7175;51.978;5.330;2023-12-20T08:49:24;8.60;99.90
14188;DHT22;7175;51.978;5.330;2023-12-20T08:51:52;8.60;99.90
14188;DHT22;7175;51.978;5.330;2023-12-20T08:54:20;8.60;99.90
14188;DHT22;7175;51.978;5.330;2023-12-20T08:56:50;8.60;99.90
14188;DHT22;7175;51.978;5.330;2023-12-20T08:59:18;8.60;99.90
14188;DHT22;7175;51.978;5.330;2023-12-20T09:01:46;8.60;99.90
14188;DHT22;7175;51.978;5.330;2023-12-20T09:04:15;8.60;99.90
14188;DHT22;7175;51.978;5.330;2023-12-20T09:06:43;8.60;99.90
14188;DHT22;7175;51.978;5.330;2023-12-20T09:09:11;8.60;99.90
14188;DHT22;7175;51.978;5.330;2023-12-20T09:11:41;8.70;99.90
14188;DHT22;7175;51.978;5.330;2023-12-20T09:14:11;8.70;99.90
14188;DHT22;7175;51.978;5.330;2023-12-20T09:16:39;8.70;99.90
14188;DHT22;7175;51.978;5.330;2023-12-20T09:19:07;8.80;99.90
14188;DHT22;7175;51.978;5.330;2023-12-20T09:21:35;8.80;99.90
14188;DHT22;7175;51.978;5.330;2023-12-20T09:24:03;8.80;99.90
14188;DHT22;7175;51.978;5.330;2023-12-20T09:26:31;8.90;99.90
14188;DHT22;7175;51.978;5.330;2023-12-20T09:28:59;8.90;99.90
14188;DHT22;7175;51.978;5.330;2023-12-20T09:31:29;8.90;99.90
14188;DHT22;7175;51.978;5.330;2023-12-20T09:33:57;9.00;99.90
14188;DHT22;7175;51.978;5.330;2023-12-20T09:36:26;9.00;99.90
14188;DHT22;7175;51.978;5.330;2023-12-20T09:38:54;9.00;99.90
14188;DHT22;7175;51.978;5.330;2023-12-20T09:41:23;9.10;99.90
14188;DHT22;7175;51.978;5.330;2023-12-20T09:43:54;9.10;99.90
14188;DHT22;7175;51.978;5.330;2023-12-20T09:46:24;9.10;99.90
14188;DHT22;7175;51.978;5.330;2023-12-20T09:48:56;9.00;99.90
14188;DHT22;7175;51.978;5.330;2023-12-20T09:51:25;9.10;99.90
14188;DHT22;7175;51.978;5.330;2023-12-20T09:53:54;9.10;99.90
14188;DHT22;7175;51.978;5.330;2023-12-20T09:56:25;9.10;99.90
14188;DHT22;7175;51.978;5.330;2023-12-20T09:58:53;9.20;99.90
14188;DHT22;7175;51.978;5.330;2023-12-20T10:01:22;9.20;99.90
14188;DHT22;7175;51.978;5.330;2023-12-20T10:03:51;9.20;99.90
14188;DHT22;7175;51.978;5.330;2023-12-20T10:06:22;9.20;99.90
14188;DHT22;7175;51.978;5.330;2023-12-20T10:08:50;9.20;99.90
14188;DHT22;7175;51.978;5.330;2023-12-20T10:11:18;9.30;99.90
14188;DHT22;7175;51.978;5.330;2023-12-20T10:13:47;9.30;99.90
14188;DHT22;7175;51.978;5.330;2023-12-20T10:16:15;9.30;99.90
14188;DHT22;7175;51.978;5.330;2023-12-20T10:18:45;9.30;99.90
14188;DHT22;7175;51.978;5.330;2023-12-20T10:21:13;9.30;99.90
14188;DHT22;7175;51.978;5.330;2023-12-20T10:23:43;9.30;99.90
14188;DHT22;7175;51.978;5.330;2023-12-20T10:26:19;9.40;99.90
14188;DHT22;7175;51.978;5.330;2023-12-20T10:28:50;9.40;99.90
14188;DHT22;7175;51.978;5.330;2023-12-20T10:31:28;9.50;99.90
14188;DHT22;7175;51.978;5.330;2023-12-20T10:33:57;9.50;99.90
14188;DHT22;7175;51.978;5.330;2023-12-20T10:36:27;9.50;99.90
14188;DHT22;7175;51.978;5.330;2023-12-20T10:38:57;9.50;99.90
14188;DHT22;7175;51.978;5.330;2023-12-20T10:41:28;9.50;99.90
14188;DHT22;7175;51.978;5.330;2023-12-20T10:43:59;9.60;99.90
14188;DHT22;7175;51.978;5.330;2023-12-20T10:46:27;9.50;99.90
14188;DHT22;7175;51.978;5.330;2023-12-20T10:48:57;9.60;99.90
14188;DHT22;7175;51.978;5.330;2023-12-20T10:51:25;9.60;99.90
14188;DHT22;7175;51.978;5.330;2023-12-20T10:53:56;9.70;99.90
14188;DHT22;7175;51.978;5.330;2023-12-20T10:56:25;9.70;99.90
14188;DHT22;7175;51.978;5.330;2023-12-20T10:58:58;9.70;99.90
14188;DHT22;7175;51.978;5.330;2023-12-20T11:01:30;9.70;99.90
14188;DHT22;7175;51.978;5.330;2023-12-20T11:03:58;9.80;99.90
14188;DHT22;7175;51.978;5.330;2023-12-20T11:06:33;9.80;99.90
14188;DHT22;7175;51.978;5.330;2023-12-20T11:09:12;9.80;99.90
14188;DHT22;7175;51.978;5.330;2023-12-20T11:11:55;9.80;99.90
14188;DHT22;7175;51.978;5.330;2023-12-20T11:14:25;9.80;99.90
14188;DHT22;7175;51.978;5.330;2023-12-20T11:17:06;9.80;99.90
14188;DHT22;7175;51.978;5.330;2023-12-20T11:19:36;9.90;99.90
14188;DHT22;7175;51.978;5.330;2023-12-20T11:22:05;9.90;99.90
14188;DHT22;7175;51.978;5.330;2023-12-20T11:24:35;9.90;99.90
14188;DHT22;7175;51.978;5.330;2023-12-20T11:27:12;9.90;99.90
14188;DHT22;7175;51.978;5.330;2023-12-20T11:29:41;10.00;99.90
14188;DHT22;7175;51.978;5.330;2023-12-20T11:32:29;10.00;99.90
14188;DHT22;7175;51.978;5.330;2023-12-20T11:34:58;9.90;99.90
14188;DHT22;7175;51.978;5.330;2023-12-20T11:37:31;9.90;99.90
14188;DHT22;7175;51.978;5.330;2023-12-20T11:40:03;9.90;99.90
14188;DHT22;7175;51.978;5.330;2023-12-20T11:42:33;9.90;99.90
14188;DHT22;7175;51.978;5.330;2023-12-20T11:45:08;9.90;99.90
14188;DHT22;7175;51.978;5.330;2023-12-20T11:47:36;9.90;99.90
14188;DHT22;7175;51.978;5.330;2023-12-20T11:50:05;9.90;99.90
14188;DHT22;7175;51.978;5.330;2023-12-20T11:52:33;10.00;99.90
14188;DHT22;7175;51.978;5.330;2023-12-20T11:55:03;10.10;99.90
14188;DHT22;7175;51.978;5.330;2023-12-20T11:57:31;10.10;99.90
14188;DHT22;7175;51.978;5.330;2023-12-20T12:00:00;10.10;99.90
14188;DHT22;7175;51.978;5.330;2023-12-20T12:02:28;10.10;99.90
14188;DHT22;7175;51.978;5.330;2023-12-20T12:04:56;10.10;99.90
14188;DHT22;7175;51.978;5.330;2023-12-20T12:07:25;10.10;99.90
14188;DHT22;7175;51.978;5.330;2023-12-20T12:09:53;10.20;99.90
14188;DHT22;7175;51.978;5.330;2023-12-20T12:12:23;10.20;99.90
14188;DHT22;7175;51.978;5.330;2023-12-20T12:14:52;10.30;99.90
14188;DHT22;7175;51.978;5.330;2023-12-20T12:17:20;10.30;99.90
14188;DHT22;7175;51.978;5.330;2023-12-20T12:19:48;10.30;99.90
14188;DHT22;7175;51.978;5.330;2023-12-20T12:22:16;10.20;99.90
14188;DHT22;7175;51.978;5.330;2023-12-20T12:24:47;10.20;99.90
14188;DHT22;7175;51.978;5.330;2023-12-20T12:27:16;10.20;99.90
14188;DHT22;7175;51.978;5.330;2023-12-20T12:30:00;10.10;99.90
14188;DHT22;7175;51.978;5.330;2023-12-20T12:32:29;10.10;99.90
14188;DHT22;7175;51.978;5.330;2023-12-20T12:34:57;10.10;99.90
14188;DHT22;7175;51.978;5.330;2023-12-20T12:37:25;10.10;99.90
14188;DHT22;7175;51.978;5.330;2023-12-20T12:39:54;10.20;99.90
14188;DHT22;7175;51.978;5.330;2023-12-20T12:42:22;10.20;99.90
14188;DHT22;7175;51.978;5.330;2023-12-20T12:45:00;10.20;99.90
14188;DHT22;7175;51.978;5.330;2023-12-20T12:47:28;10.20;99.90
14188;DHT22;7175;51.978;5.330;2023-12-20T12:49:57;10.20;99.90
14188;DHT22;7175;51.978;5.330;2023-12-20T12:52:25;10.20;99.90
14188;DHT22;7175;51.978;5.330;2023-12-20T12:54:53;10.20;99.90
14188;DHT22;7175;51.978;5.330;2023-12-20T12:57:22;10.20;99.90
14188;DHT22;7175;51.978;5.330;2023-12-20T12:59:50;10.20;99.90
14188;DHT22;7175;51.978;5.330;2023-12-20T13:02:20;10.20;99.90
14188;DHT22;7175;51.978;5.330;2023-12-20T13:04:47;10.20;99.90
14188;DHT22;7175;51.978;5.330;2023-12-20T13:07:16;10.20;99.90
14188;DHT22;7175;51.978;5.330;2023-12-20T13:09:44;10.20;99.90
14188;DHT22;7175;51.978;5.330;2023-12-20T13:12:12;10.20;99.90
14188;DHT22;7175;51.978;5.330;2023-12-20T13:14:40;10.20;99.90
14188;DHT22;7175;51.978;5.330;2023-12-20T13:17:08;10.20;99.90
14188;DHT22;7175;51.978;5.330;2023-12-20T13:19:37;10.20;99.90
14188;DHT22;7175;51.978;5.330;2023-12-20T13:22:05;10.20;99.90
14188;DHT22;7175;51.978;5.330;2023-12-20T13:24:34;10.20;99.90
14188;DHT22;7175;51.978;5.330;2023-12-20T13:27:02;10.30;99.90
14188;DHT22;7175;51.978;5.330;2023-12-20T13:29:30;10.30;99.90
14188;DHT22;7175;51.978;5.330;2023-12-20T13:31:58;10.30;99.90
14188;DHT22;7175;51.978;5.330;2023-12-20T13:34:26;10.30;99.90
14188;DHT22;7175;51.978;5.330;2023-12-20T13:36:56;10.30;99.90
14188;DHT22;7175;51.978;5.330;2023-12-20T13:39:24;10.30;99.90
14188;DHT22;7175;51.978;5.330;2023-12-20T13:41:52;10.30;99.90
14188;DHT22;7175;51.978;5.330;2023-12-20T13:44:22;10.30;99.90
14188;DHT22;7175;51.978;5.330;2023-12-20T13:46:50;10.30;99.90
14188;DHT22;7175;51.978;5.330;2023-12-20T13:49:18;10.30;99.90
14188;DHT22;7175;51.978;5.330;2023-12-20T13:51:46;10.30;99.90
14188;DHT22;7175;51.978;5.330;2023-12-20T13:54:15;10.30;99.90
14188;DHT22;7175;51.978;5.330;2023-12-20T13:56:47;10.30;99.90
14188;DHT22;7175;51.978;5.330;2023-12-20T13:59:33;10.30;99.90
14188;DHT22;7175;51.978;5.330;2023-12-20T14:02:02;10.30;99.90
14188;DHT22;7175;51.978;5.330;2023-12-20T14:04:31;10.20;99.90
14188;DHT22;7175;51.978;5.330;2023-12-20T14:07:09;10.20;99.90
14188;DHT22;7175;51.978;5.330;2023-12-20T14:09:40;10.20;99.90
14188;DHT22;7175;51.978;5.330;2023-12-20T14:12:13;10.20;99.90
14188;DHT22;7175;51.978;5.330;2023-12-20T14:14:41;10.20;99.90
14188;DHT22;7175;51.978;5.330;2023-12-20T14:17:11;10.20;99.90
14188;DHT22;7175;51.978;5.330;2023-12-20T14:19:39;10.20;99.90
14188;DHT22;7175;51.978;5.330;2023-12-20T14:22:07;10.20;99.90
14188;DHT22;7175;51.978;5.330;2023-12-20T14:24:36;10.20;99.90
14188;DHT22;7175;51.978;5.330;2023-12-20T14:27:05;10.10;99.90
14188;DHT22;7175;51.978;5.330;2023-12-20T14:29:33;10.20;99.90
14188;DHT22;7175;51.978;5.330;2023-12-20T14:32:01;10.20;99.90
14188;DHT22;7175;51.978;5.330;2023-12-20T14:34:30;10.10;99.90
14188;DHT22;7175;51.978;5.330;2023-12-20T14:36:58;10.10;99.90
14188;DHT22;7175;51.978;5.330;2023-12-20T14:39:26;10.10;99.90
14188;DHT22;7175;51.978;5.330;2023-12-20T14:41:54;10.00;99.90
14188;DHT22;7175;51.978;5.330;2023-12-20T14:44:24;10.00;99.90
14188;DHT22;7175;51.978;5.330;2023-12-20T14:46:52;10.00;99.90
14188;DHT22;7175;51.978;5.330;2023-12-20T14:49:20;9.90;99.90
14188;DHT22;7175;51.978;5.330;2023-12-20T14:51:48;9.90;99.90
14188;DHT22;7175;51.978;5.330;2023-12-20T14:54:16;9.90;99.90
14188;DHT22;7175;51.978;5.330;2023-12-20T14:56:44;10.00;99.90
14188;DHT22;7175;51.978;5.330;2023-12-20T14:59:13;10.00;99.90
14188;DHT22;7175;51.978;5.330;2023-12-20T15:01:43;9.90;99.90
14188;DHT22;7175;51.978;5.330;2023-12-20T15:04:11;9.90;99.90
14188;DHT22;7175;51.978;5.330;2023-12-20T15:06:39;9.90;99.90
14188;DHT22;7175;51.978;5.330;2023-12-20T15:09:07;9.90;99.90
14188;DHT22;7175;51.978;5.330;2023-12-20T15:11:36;9.90;99.90
14188;DHT22;7175;51.978;5.330;2023-12-20T15:14:04;9.90;99.90
14188;DHT22;7175;51.978;5.330;2023-12-20T15:16:35;9.90;99.90
14188;DHT22;7175;51.978;5.330;2023-12-20T15:19:05;9.80;99.90
14188;DHT22;7175;51.978;5.330;2023-12-20T15:21:33;9.90;99.90
14188;DHT22;7175;51.978;5.330;2023-12-20T15:24:10;9.80;99.90
14188;DHT22;7175;51.978;5.330;2023-12-20T15:26:42;9.80;99.90
14188;DHT22;7175;51.978;5.330;2023-12-20T15:29:12;9.80;99.90
14188;DHT22;7175;51.978;5.330;2023-12-20T15:31:43;9.80;99.90
14188;DHT22;7175;51.978;5.330;2023-12-20T15:34:14;9.80;99.90
14188;DHT22;7175;51.978;5.330;2023-12-20T16:30:14;9.50;99.90
14188;DHT22;7175;51.978;5.330;2023-12-20T16:32:43;9.50;99.90
14188;DHT22;7175;51.978;5.330;2023-12-20T16:35:11;9.50;99.90
14188;DHT22;7175;51.978;5.330;2023-12-20T16:37:39;9.60;99.90
14188;DHT22;7175;51.978;5.330;2023-12-20T16:40:07;9.50;99.90
14188;DHT22;7175;51.978;5.330;2023-12-20T16:42:35;9.50;99.90
14188;DHT22;7175;51.978;5.330;2023-12-20T16:45:05;9.60;99.90
14188;DHT22;7175;51.978;5.330;2023-12-20T16:47:34;9.60;99.90
14188;DHT22;7175;51.978;5.330;2023-12-20T16:50:03;9.60;99.90
14188;DHT22;7175;51.978;5.330;2023-12-20T16:52:33;9.50;99.90
14188;DHT22;7175;51.978;5.330;2023-12-20T16:55:03;9.60;99.90
14188;DHT22;7175;51.978;5.330;2023-12-20T16:57:31;9.50;99.90
14188;DHT22;7175;51.978;5.330;2023-12-20T16:59:59;9.50;99.90
14188;DHT22;7175;51.978;5.330;2023-12-20T17:02:27;9.50;99.90
14188;DHT22;7175;51.978;5.330;2023-12-20T17:04:57;9.50;99.90